Time;durP1;ratioP1;P1;durP2;ratioP2;P2;SDS_P1;SDS_P2;PMS_P1;PMS_P2;Temp;Humidity;BMP_temperature;BMP_pressure;BME280_temperature;BME280_humidity;BME280_pressure;Samples;Min_cycle;Max_cycle;Signal;HPM_P1;HPM_P2
2022/05/05 00:00:52;;;;;;;7.90;7.10;;;15.80;99.90;;;;;;4972287;28;1089501;-75
2022/05/05 00:03:18;;;;;;;8.73;7.50;;;15.70;99.90;;;;;;5015020;28;20475;-77
2022/05/05 00:05:44;;;;;;;8.97;8.07;;;15.50;99.90;;;;;;5015326;28;20452;-77
2022/05/05 00:08:09;;;;;;;13.20;7.53;;;15.40;99.90;;;;;;5013902;28;20184;-76
2022/05/05 00:16:05;;;;;;;8.57;7.43;;;15.20;99.90;;;;;;5017353;28;20489;-78
2022/05/05 00:18:31;;;;;;;7.87;7.07;;;15.20;99.90;;;;;;5014543;28;20434;-76
2022/05/05 00:20:57;;;;;;;7.63;6.77;;;15.10;99.90;;;;;;5015285;28;20443;-75
2022/05/05 00:23:22;;;;;;;7.97;7.00;;;15.30;99.90;;;;;;5030236;28;20469;-77
2022/05/05 00:25:48;;;;;;;9.00;7.40;;;15.30;99.90;;;;;;5010570;28;20185;-77
2022/05/05 00:28:13;;;;;;;7.60;6.87;;;15.30;99.90;;;;;;5010139;28;20196;-77
2022/05/05 00:30:39;;;;;;;9.20;7.90;;;15.30;99.90;;;;;;5012080;28;20622;-77
2022/05/05 00:33:05;;;;;;;8.07;7.37;;;15.30;99.90;;;;;;5013899;28;20204;-76
2022/05/05 00:35:30;;;;;;;7.80;7.00;;;15.40;99.90;;;;;;5016459;28;20184;-77
2022/05/05 00:37:56;;;;;;;9.90;7.60;;;15.40;99.90;;;;;;5016346;28;20267;-75
2022/05/05 00:40:22;;;;;;;8.57;7.30;;;15.50;99.90;;;;;;5014057;28;20177;-77
2022/05/05 00:42:48;;;;;;;8.80;8.00;;;15.50;99.90;;;;;;5013494;28;20451;-76
2022/05/05 00:45:14;;;;;;;7.83;7.03;;;15.40;99.90;;;;;;5015271;28;20259;-77
2022/05/05 00:47:40;;;;;;;8.83;7.93;;;15.40;99.90;;;;;;5017627;28;20287;-77
2022/05/05 00:50:06;;;;;;;10.20;8.20;;;15.30;99.90;;;;;;5012742;28;21282;-77
2022/05/05 00:52:31;;;;;;;10.33;9.20;;;15.30;99.90;;;;;;5014120;28;20499;-76
2022/05/05 00:54:58;;;;;;;9.90;8.60;;;15.20;99.90;;;;;;5014711;28;20542;-75
2022/05/05 00:57:24;;;;;;;10.20;8.63;;;15.30;99.90;;;;;;5015480;28;20205;-77
2022/05/05 00:59:51;;;;;;;8.07;7.27;;;15.20;99.90;;;;;;5015023;28;21028;-76
2022/05/05 01:02:17;;;;;;;9.83;8.63;;;15.20;99.90;;;;;;5028392;28;20464;-76
2022/05/05 01:04:43;;;;;;;9.27;8.00;;;15.30;99.90;;;;;;5011551;28;20473;-77
2022/05/05 01:07:09;;;;;;;12.60;8.10;;;15.20;99.90;;;;;;5016959;28;20181;-77
2022/05/05 01:09:35;;;;;;;7.80;7.10;;;15.10;99.90;;;;;;5010411;28;20796;-77
2022/05/05 01:12:02;;;;;;;9.40;8.40;;;15.00;99.90;;;;;;5014508;28;20269;-78
2022/05/05 01:14:29;;;;;;;9.20;8.20;;;15.00;99.90;;;;;;5017834;28;20993;-76
2022/05/05 01:16:55;;;;;;;9.03;8.10;;;15.00;99.90;;;;;;5016854;28;20588;-77
2022/05/05 01:19:20;;;;;;;9.10;7.80;;;15.00;99.90;;;;;;5016506;28;20436;-76
2022/05/05 01:21:53;;;;;;;8.87;7.57;;;14.90;99.90;;;;;;5021665;28;20506;-77
2022/05/05 01:28:10;;;;;;;8.73;7.20;;;14.80;99.90;;;;;;5024465;28;20731;-77
2022/05/05 01:29:51;;;;;;;9.17;8.27;;;14.70;99.90;;;;;;5011509;28;20477;-76
2022/05/05 01:32:17;;;;;;;10.17;8.60;;;14.60;99.90;;;;;;5010339;28;20446;-75
2022/05/05 01:34:42;;;;;;;8.60;7.80;;;14.60;99.90;;;;;;5013495;28;20802;-76
2022/05/05 01:37:08;;;;;;;8.70;7.80;;;14.60;99.90;;;;;;5019767;28;20181;-75
2022/05/05 01:39:34;;;;;;;10.00;8.97;;;14.70;99.90;;;;;;5013233;28;20275;-77
2022/05/05 01:41:59;;;;;;;8.60;7.60;;;14.50;99.90;;;;;;5008689;28;20648;-75
2022/05/05 01:44:25;;;;;;;8.70;7.90;;;14.60;99.90;;;;;;5027461;28;20231;-76
2022/05/05 01:46:53;;;;;;;12.10;9.40;;;14.60;99.90;;;;;;5006880;28;20193;-77
2022/05/05 01:49:18;;;;;;;10.87;9.80;;;14.50;99.90;;;;;;5012293;28;20261;-78
2022/05/05 01:51:44;;;;;;;11.17;9.20;;;14.40;99.90;;;;;;5004113;28;20962;-76
2022/05/05 01:54:10;;;;;;;10.73;9.63;;;14.50;99.90;;;;;;5008968;28;21814;-73
2022/05/05 01:56:36;;;;;;;10.93;9.57;;;14.60;99.90;;;;;;5013426;28;20439;-76
2022/05/05 01:59:01;;;;;;;10.03;9.00;;;14.60;99.90;;;;;;5010621;28;20239;-77
2022/05/05 02:01:27;;;;;;;9.67;8.73;;;14.50;99.90;;;;;;5014455;28;20208;-78
2022/05/05 02:03:52;;;;;;;10.00;9.10;;;14.50;99.90;;;;;;5009669;28;20235;-75
2022/05/05 02:06:18;;;;;;;10.83;9.80;;;14.70;99.90;;;;;;5016087;28;20303;-79
2022/05/05 02:08:44;;;;;;;12.90;9.60;;;14.50;99.90;;;;;;5005661;28;20180;-77
2022/05/05 02:11:09;;;;;;;10.07;8.97;;;14.50;99.90;;;;;;5011347;28;20215;-75
2022/05/05 02:13:35;;;;;;;10.63;9.53;;;14.50;99.90;;;;;;5019577;28;20205;-77
2022/05/05 02:16:01;;;;;;;10.00;9.00;;;14.50;99.90;;;;;;5011598;28;20238;-75
2022/05/05 02:18:27;;;;;;;12.23;9.17;;;14.60;99.90;;;;;;5014120;28;20718;-75
2022/05/05 02:20:52;;;;;;;13.30;9.87;;;14.60;99.90;;;;;;5009234;28;20648;-75
2022/05/05 02:23:18;;;;;;;10.67;9.20;;;14.60;99.90;;;;;;5014452;28;20471;-76
2022/05/05 02:25:44;;;;;;;11.07;9.90;;;14.70;99.90;;;;;;5011446;28;20254;-75
2022/05/05 02:28:09;;;;;;;10.20;9.10;;;14.50;99.90;;;;;;5008752;28;20299;-76
2022/05/05 02:30:35;;;;;;;10.80;9.70;;;14.50;99.90;;;;;;5013210;28;20299;-75
2022/05/05 02:33:01;;;;;;;9.27;8.13;;;14.50;99.90;;;;;;5009501;28;20832;-77
2022/05/05 02:35:26;;;;;;;9.60;8.60;;;14.70;99.90;;;;;;5013109;28;20181;-77
2022/05/05 02:40:37;;;;;;;10.60;8.73;;;14.80;99.90;;;;;;5009837;28;20228;-76
2022/05/05 02:43:03;;;;;;;9.87;8.97;;;14.70;99.90;;;;;;5014253;28;20471;-76
2022/05/05 02:45:29;;;;;;;9.53;8.53;;;14.70;99.90;;;;;;5016196;28;20235;-77
2022/05/05 02:47:55;;;;;;;9.77;8.87;;;14.70;99.90;;;;;;5010787;28;21081;-78
2022/05/05 02:50:21;;;;;;;11.53;8.20;;;14.60;99.90;;;;;;5010248;28;21320;-77
2022/05/05 02:52:47;;;;;;;9.37;8.47;;;14.60;99.90;;;;;;5008165;28;20463;-77
2022/05/05 02:55:13;;;;;;;9.07;8.17;;;14.70;99.90;;;;;;5011026;28;20435;-77
2022/05/05 02:57:39;;;;;;;10.30;9.30;;;14.60;99.90;;;;;;5016095;28;20428;-77
2022/05/05 03:00:11;;;;;;;10.00;9.00;;;14.60;99.90;;;;;;5011041;28;20196;-75
2022/05/05 03:02:37;;;;;;;9.80;8.57;;;14.50;99.90;;;;;;5011620;28;20466;-75
2022/05/05 03:05:03;;;;;;;10.50;9.43;;;14.60;99.90;;;;;;5015068;28;20864;-76
2022/05/05 03:07:28;;;;;;;11.60;8.33;;;14.70;99.90;;;;;;5014575;28;20538;-77
2022/05/05 03:09:55;;;;;;;11.43;9.50;;;14.60;99.90;;;;;;5008851;28;20247;-76
2022/05/05 03:12:20;;;;;;;9.00;8.10;;;14.70;99.90;;;;;;5015256;28;20192;-75
2022/05/05 03:14:47;;;;;;;9.83;8.90;;;14.60;99.90;;;;;;5011925;28;20428;-75
2022/05/05 03:17:13;;;;;;;9.30;8.47;;;14.60;99.90;;;;;;5016306;28;20176;-75
2022/05/05 03:19:40;;;;;;;10.30;9.20;;;14.50;99.90;;;;;;5028596;28;20509;-76
2022/05/05 03:22:05;;;;;;;9.43;8.53;;;14.50;99.90;;;;;;5026560;28;20435;-75
2022/05/05 03:24:31;;;;;;;10.47;9.17;;;14.50;99.90;;;;;;5012143;28;20435;-76
2022/05/05 03:26:57;;;;;;;10.07;9.07;;;14.60;99.90;;;;;;5014193;28;20264;-75
2022/05/05 03:29:22;;;;;;;9.90;8.90;;;14.50;99.90;;;;;;5016005;28;22650;-76
2022/05/05 03:31:48;;;;;;;10.17;9.13;;;14.50;99.90;;;;;;5012365;28;20179;-75
2022/05/05 03:34:13;;;;;;;11.23;9.10;;;14.40;99.90;;;;;;5028056;28;20200;-76
2022/05/05 03:36:39;;;;;;;10.33;9.33;;;14.40;99.90;;;;;;5016747;28;20844;-74
2022/05/05 03:39:05;;;;;;;10.20;9.17;;;14.30;99.90;;;;;;5010620;28;20221;-74
2022/05/05 03:41:31;;;;;;;12.17;9.83;;;14.30;99.90;;;;;;5014045;28;20173;-76
2022/05/05 03:43:57;;;;;;;9.90;8.90;;;14.30;99.90;;;;;;5013010;28;20197;-74
2022/05/05 03:46:22;;;;;;;9.73;8.80;;;14.40;99.90;;;;;;5016221;28;20443;-75
2022/05/05 03:48:48;;;;;;;10.17;9.17;;;14.40;99.90;;;;;;5013485;28;21654;-75
2022/05/05 03:51:14;;;;;;;9.63;8.73;;;14.50;99.90;;;;;;5012847;28;20225;-76
2022/05/05 03:53:39;;;;;;;9.77;8.77;;;14.40;99.90;;;;;;5013737;28;20231;-76
2022/05/05 03:56:05;;;;;;;10.20;9.20;;;14.30;99.90;;;;;;5009853;28;20319;-76
2022/05/05 03:58:31;;;;;;;9.70;8.73;;;14.30;99.90;;;;;;5015367;28;20621;-77
2022/05/05 04:00:57;;;;;;;9.97;9.00;;;14.40;99.90;;;;;;5013549;28;20683;-75
2022/05/05 04:03:32;;;;;;;9.80;8.80;;;14.40;99.90;;;;;;5015139;28;20475;-76
2022/05/05 04:06:04;;;;;;;10.50;9.40;;;14.40;99.90;;;;;;5009833;28;20188;-75
2022/05/05 04:08:30;;;;;;;12.03;9.60;;;14.30;99.90;;;;;;5012765;28;20881;-74
2022/05/05 04:10:57;;;;;;;11.20;9.40;;;14.40;99.90;;;;;;5013187;28;20555;-75
2022/05/05 04:13:23;;;;;;;14.07;9.37;;;14.40;99.90;;;;;;5014230;28;20462;-75
2022/05/05 04:15:48;;;;;;;10.50;9.10;;;14.30;99.90;;;;;;5015581;28;20458;-74
2022/05/05 04:18:14;;;;;;;10.03;9.03;;;14.30;99.90;;;;;;5007716;28;20465;-75
2022/05/05 04:20:42;;;;;;;9.83;8.90;;;14.40;99.90;;;;;;5014006;28;20201;-76
2022/05/05 04:23:08;;;;;;;10.13;9.07;;;14.50;99.90;;;;;;5014179;28;20212;-77
2022/05/05 04:25:35;;;;;;;10.77;9.67;;;14.40;99.90;;;;;;5014134;28;20439;-75
2022/05/05 04:28:01;;;;;;;10.20;9.13;;;14.40;99.90;;;;;;5009727;28;21007;-74
2022/05/05 04:30:26;;;;;;;10.80;8.70;;;14.40;99.90;;;;;;5012595;28;20467;-76
2022/05/05 04:32:52;;;;;;;9.20;8.03;;;14.30;99.90;;;;;;5011078;28;20208;-76
2022/05/05 04:35:18;;;;;;;8.90;8.00;;;14.40;99.90;;;;;;5008525;28;20193;-76
2022/05/05 04:37:44;;;;;;;9.20;8.33;;;14.30;99.90;;;;;;5010676;28;20195;-76
2022/05/05 04:40:10;;;;;;;9.60;8.40;;;14.40;99.90;;;;;;5012201;28;20196;-74
2022/05/05 04:42:37;;;;;;;9.70;8.37;;;14.40;99.90;;;;;;5011147;28;20557;-75
2022/05/05 04:45:04;;;;;;;9.27;8.23;;;14.40;99.90;;;;;;5008062;28;20447;-75
2022/05/05 04:47:29;;;;;;;9.57;8.67;;;14.30;99.90;;;;;;5013089;28;20442;-74
2022/05/05 04:49:56;;;;;;;9.53;8.63;;;14.30;99.90;;;;;;5016335;28;20467;-75
2022/05/05 04:52:23;;;;;;;10.60;9.60;;;14.30;99.90;;;;;;5009041;28;20555;-76
2022/05/05 04:54:49;;;;;;;11.40;9.23;;;14.20;99.90;;;;;;5010258;28;20486;-75
2022/05/05 04:57:15;;;;;;;10.80;9.10;;;14.20;99.90;;;;;;5010321;28;20439;-76
2022/05/05 04:59:41;;;;;;;9.80;8.10;;;14.10;99.90;;;;;;5008989;28;20272;-76
2022/05/05 05:02:07;;;;;;;10.37;8.87;;;14.10;99.90;;;;;;5011415;28;20531;-76
2022/05/05 05:04:35;;;;;;;9.63;8.63;;;14.20;99.90;;;;;;5027434;28;20231;-76
2022/05/05 05:07:01;;;;;;;10.50;8.60;;;14.30;99.90;;;;;;5005771;28;20200;-74
2022/05/05 05:09:26;;;;;;;9.90;8.90;;;14.20;99.90;;;;;;5008555;28;20471;-75
2022/05/05 05:11:52;;;;;;;9.70;8.80;;;14.30;99.90;;;;;;5013707;28;20184;-76
2022/05/05 05:14:18;;;;;;;9.70;8.70;;;14.40;99.90;;;;;;5010585;28;20205;-76
2022/05/05 05:16:43;;;;;;;10.50;9.20;;;14.30;99.90;;;;;;5006175;28;20271;-77
2022/05/05 05:19:09;;;;;;;9.93;8.43;;;14.20;99.90;;;;;;5023979;28;20640;-76
2022/05/05 05:21:35;;;;;;;10.57;9.47;;;14.30;99.90;;;;;;5008319;28;20204;-74
2022/05/05 05:24:02;;;;;;;9.80;8.80;;;14.30;99.90;;;;;;5010584;28;20219;-75
2022/05/05 05:26:28;;;;;;;9.93;8.93;;;14.20;99.90;;;;;;5007911;28;20185;-75
2022/05/05 05:28:54;;;;;;;11.07;9.87;;;14.20;99.90;;;;;;5011162;28;20483;-76
2022/05/05 05:31:21;;;;;;;11.33;8.57;;;14.20;99.90;;;;;;5007627;28;22534;-75
2022/05/05 05:33:47;;;;;;;9.70;8.80;;;14.30;99.90;;;;;;5010789;28;20283;-77
2022/05/05 05:36:13;;;;;;;15.30;8.53;;;14.20;99.90;;;;;;5009026;28;20446;-76
2022/05/05 05:38:39;;;;;;;11.70;9.03;;;14.20;99.90;;;;;;5008408;28;20443;-75
2022/05/05 05:41:05;;;;;;;10.47;9.47;;;14.40;99.90;;;;;;5007770;28;20809;-77
2022/05/05 05:43:30;;;;;;;11.57;8.30;;;14.30;99.90;;;;;;5026419;28;20239;-75
2022/05/05 05:45:56;;;;;;;10.07;8.43;;;14.30;99.90;;;;;;5008857;28;20193;-76
2022/05/05 05:48:21;;;;;;;10.23;9.23;;;14.40;99.90;;;;;;5008095;28;20189;-77
2022/05/05 05:50:47;;;;;;;10.10;9.00;;;14.40;99.90;;;;;;5008265;28;20213;-77
2022/05/05 05:53:12;;;;;;;9.27;8.37;;;14.50;99.90;;;;;;5011949;28;20690;-77
2022/05/05 05:55:38;;;;;;;10.70;9.37;;;14.40;99.90;;;;;;5010876;28;20259;-75
2022/05/05 05:58:04;;;;;;;10.33;9.30;;;14.40;99.90;;;;;;5007255;28;20812;-75
2022/05/05 06:00:32;;;;;;;12.47;10.00;;;14.40;99.90;;;;;;5012678;28;20451;-75
2022/05/05 06:05:42;;;;;;;12.17;9.57;;;14.50;99.90;;;;;;5007719;28;21253;-76
2022/05/05 06:08:11;;;;;;;11.13;10.03;;;14.40;99.90;;;;;;5011692;28;20444;-75
2022/05/05 06:10:37;;;;;;;11.67;10.17;;;14.40;99.90;;;;;;5012989;28;20212;-76
2022/05/05 06:13:03;;;;;;;10.77;9.67;;;14.40;99.90;;;;;;5010590;28;20466;-75
2022/05/05 06:15:29;;;;;;;16.40;9.43;;;14.40;99.90;;;;;;5011254;28;20197;-75
2022/05/05 06:17:55;;;;;;;10.70;9.60;;;14.30;99.90;;;;;;5010417;28;20431;-75
2022/05/05 06:20:21;;;;;;;11.13;9.90;;;14.40;99.90;;;;;;5006276;28;20223;-74
2022/05/05 06:22:47;;;;;;;10.37;9.27;;;14.50;99.90;;;;;;5011246;28;20450;-74
2022/05/05 06:25:13;;;;;;;13.27;11.00;;;14.60;99.90;;;;;;5010881;28;20458;-75
2022/05/05 06:27:39;;;;;;;12.03;9.70;;;14.60;99.90;;;;;;5011633;28;20219;-75
2022/05/05 06:30:07;;;;;;;13.13;11.40;;;14.50;99.90;;;;;;5016032;28;20466;-75
2022/05/05 06:32:33;;;;;;;12.40;11.13;;;14.30;99.90;;;;;;5016184;28;20466;-76
2022/05/05 06:34:58;;;;;;;14.70;10.87;;;14.20;99.90;;;;;;5017100;28;20810;-76
2022/05/05 06:37:24;;;;;;;13.83;11.50;;;14.20;99.90;;;;;;5016158;28;20232;-73
2022/05/05 06:39:51;;;;;;;13.77;11.20;;;14.10;99.90;;;;;;5009645;28;20181;-74
2022/05/05 06:42:17;;;;;;;12.43;11.00;;;14.00;99.90;;;;;;5017938;28;20194;-75
2022/05/05 06:44:42;;;;;;;13.60;11.27;;;14.20;99.90;;;;;;5013103;28;20821;-74
2022/05/05 06:47:08;;;;;;;14.17;11.30;;;14.20;99.90;;;;;;5004229;28;20212;-74
2022/05/05 06:49:34;;;;;;;13.60;10.73;;;14.20;99.90;;;;;;5015834;28;20208;-74
2022/05/05 06:52:00;;;;;;;18.60;12.00;;;14.30;99.90;;;;;;5016806;28;20260;-74
2022/05/05 06:54:27;;;;;;;12.87;11.33;;;14.40;99.90;;;;;;5016474;28;20489;-74
2022/05/05 06:56:54;;;;;;;15.97;12.63;;;14.50;99.90;;;;;;5013239;28;20181;-74
2022/05/05 06:59:19;;;;;;;11.40;10.30;;;14.50;99.90;;;;;;5016864;28;20439;-75
2022/05/05 07:01:56;;;;;;;12.83;11.53;;;14.60;99.90;;;;;;5007075;28;20474;-75
2022/05/05 07:07:13;;;;;;;13.17;11.77;;;15.40;99.90;;;;;;5015467;28;20804;-75
2022/05/05 07:12:28;;;;;;;13.87;12.40;;;15.20;99.90;;;;;;5007176;28;20860;-76
2022/05/05 07:14:55;;;;;;;12.00;10.80;;;15.50;99.90;;;;;;5010376;28;20418;-76
2022/05/05 07:17:21;;;;;;;13.60;11.20;;;15.50;99.90;;;;;;5009335;28;20439;-76
2022/05/05 07:19:47;;;;;;;12.37;11.13;;;15.70;99.90;;;;;;5014389;28;20436;-75
2022/05/05 07:22:12;;;;;;;13.83;10.67;;;15.90;99.90;;;;;;5014013;28;20453;-76
2022/05/05 07:24:38;;;;;;;14.93;11.40;;;16.00;99.90;;;;;;5013761;28;20181;-76
2022/05/05 07:27:05;;;;;;;12.67;10.90;;;16.00;99.90;;;;;;5012846;28;20284;-73
2022/05/05 07:29:31;;;;;;;14.00;11.50;;;16.00;99.90;;;;;;5013396;28;20215;-74
2022/05/05 07:31:57;;;;;;;14.70;12.43;;;16.00;99.90;;;;;;5029722;28;21145;-76
2022/05/05 07:34:23;;;;;;;20.67;12.07;;;16.10;99.90;;;;;;5013154;28;20519;-75
2022/05/05 07:36:49;;;;;;;15.37;12.23;;;16.20;99.90;;;;;;5017816;28;20184;-76
2022/05/05 07:39:15;;;;;;;17.20;11.93;;;16.20;99.90;;;;;;5014584;28;20470;-76
2022/05/05 07:41:41;;;;;;;16.60;13.70;;;16.20;99.90;;;;;;5014586;28;20451;-75
2022/05/05 07:44:07;;;;;;;19.87;12.87;;;16.20;99.90;;;;;;5013378;28;20717;-74
2022/05/05 07:46:33;;;;;;;19.30;13.70;;;16.10;99.90;;;;;;5011644;28;20534;-77
2022/05/05 07:49:00;;;;;;;15.90;14.23;;;16.00;99.90;;;;;;5014225;28;20185;-75
2022/05/05 07:51:27;;;;;;;16.40;13.07;;;15.90;99.90;;;;;;5016359;28;20641;-76
2022/05/05 07:56:37;;;;;;;18.47;14.50;;;15.80;99.90;;;;;;5017310;28;20442;-76
2022/05/05 07:59:03;;;;;;;17.37;14.80;;;15.80;99.90;;;;;;5016722;28;20428;-75
2022/05/05 08:01:29;;;;;;;17.70;15.80;;;15.30;99.90;;;;;;5015259;28;20200;-76
2022/05/05 08:03:55;;;;;;;21.20;15.30;;;15.10;99.90;;;;;;5015439;28;20684;-76
2022/05/05 08:06:21;;;;;;;17.77;15.10;;;15.30;99.90;;;;;;5014332;28;20212;-77
2022/05/05 08:08:47;;;;;;;19.90;15.70;;;15.50;99.90;;;;;;5012439;28;20436;-76
2022/05/05 08:11:12;;;;;;;20.80;15.77;;;15.50;99.90;;;;;;5026188;28;20987;-77
2022/05/05 08:13:38;;;;;;;18.03;16.13;;;15.60;99.90;;;;;;5015488;28;20200;-74
2022/05/05 08:16:04;;;;;;;21.20;16.00;;;15.40;99.90;;;;;;5027929;28;20189;-76
2022/05/05 08:18:30;;;;;;;19.70;16.53;;;15.40;99.90;;;;;;5019955;28;20263;-74
2022/05/05 08:20:55;;;;;;;20.87;16.07;;;15.50;99.90;;;;;;5015241;28;20464;-76
2022/05/05 08:23:21;;;;;;;23.37;17.23;;;15.50;99.90;;;;;;5018627;28;20209;-76
2022/05/05 08:28:36;;;;;;;27.00;15.90;;;15.80;99.90;;;;;;5022736;28;20238;-76
2022/05/05 08:31:02;;;;;;;21.87;16.90;;;15.80;99.90;;;;;;5018784;28;20498;-74
2022/05/05 08:33:28;;;;;;;19.43;16.30;;;15.80;99.90;;;;;;5015989;28;20870;-75
2022/05/05 08:35:55;;;;;;;18.37;16.30;;;15.80;99.90;;;;;;5032355;28;20553;-74
2022/05/05 08:38:21;;;;;;;21.07;17.17;;;15.70;99.90;;;;;;5016993;28;20663;-76
2022/05/05 08:40:47;;;;;;;20.20;16.47;;;15.80;99.90;;;;;;5015358;28;20443;-75
2022/05/05 08:43:13;;;;;;;20.80;16.77;;;15.80;99.90;;;;;;5010011;28;20205;-76
2022/05/05 08:45:39;;;;;;;17.77;15.43;;;15.60;99.90;;;;;;5017315;28;20454;-74
2022/05/05 08:48:10;;;;;;;20.77;17.23;;;15.50;99.90;;;;;;5018361;28;20192;-74
2022/05/05 08:50:41;;;;;;;23.03;18.30;;;15.40;99.90;;;;;;5017874;28;20467;-75
2022/05/05 08:53:07;;;;;;;20.73;16.40;;;15.40;99.90;;;;;;5013343;28;21358;-76
2022/05/05 08:55:34;;;;;;;24.87;18.50;;;15.50;99.90;;;;;;5011894;28;20810;-74
2022/05/05 08:58:01;;;;;;;22.10;17.50;;;15.50;99.90;;;;;;5014231;28;20438;-74
2022/05/05 09:00:27;;;;;;;20.63;15.97;;;15.50;99.90;;;;;;5011562;28;20471;-77
2022/05/05 09:03:00;;;;;;;21.33;17.80;;;15.50;99.90;;;;;;5009295;28;20811;-74
2022/05/05 09:05:45;;;;;;;25.17;18.40;;;15.30;99.90;;;;;;5007124;28;20432;-74
2022/05/05 09:08:22;;;;;;;21.50;17.87;;;15.20;99.90;;;;;;5012092;28;20443;-76
2022/05/05 09:10:50;;;;;;;27.80;18.20;;;15.20;99.90;;;;;;5012988;28;20513;-73
2022/05/05 09:13:21;;;;;;;23.23;17.67;;;15.20;99.90;;;;;;5012376;28;20463;-76
2022/05/05 09:15:47;;;;;;;21.10;18.20;;;15.20;99.90;;;;;;5012896;28;20455;-76
2022/05/05 09:18:21;;;;;;;24.77;18.97;;;15.30;99.90;;;;;;5015657;28;20981;-75
2022/05/05 09:20:48;;;;;;;21.77;18.47;;;15.20;99.90;;;;;;5012730;28;20185;-76
2022/05/05 09:23:33;;;;;;;24.13;18.70;;;15.20;99.90;;;;;;5010628;28;20879;-76
2022/05/05 09:26:01;;;;;;;20.53;18.23;;;15.30;99.90;;;;;;5011581;28;20446;-74
2022/05/05 09:28:31;;;;;;;25.30;19.07;;;15.30;99.90;;;;;;5009464;28;20430;-76
2022/05/05 09:31:19;;;;;;;26.40;18.43;;;15.30;99.90;;;;;;5011363;28;21496;-76
2022/05/05 09:33:45;;;;;;;19.70;17.37;;;15.20;99.90;;;;;;5007341;28;20451;-76
2022/05/05 09:36:13;;;;;;;24.03;18.77;;;15.30;99.90;;;;;;5012989;28;20441;-74
2022/05/05 09:38:51;;;;;;;20.70;18.10;;;15.30;99.90;;;;;;5013734;28;20256;-76
2022/05/05 09:41:28;;;;;;;23.67;17.97;;;15.30;99.90;;;;;;5013377;28;20427;-75
2022/05/05 09:43:55;;;;;;;18.93;16.17;;;15.30;99.90;;;;;;5009023;28;20462;-76
2022/05/05 09:46:25;;;;;;;25.53;19.17;;;15.30;99.90;;;;;;5012129;28;20438;-75
2022/05/05 09:48:52;;;;;;;23.60;16.67;;;15.30;99.90;;;;;;5009945;28;20442;-75
2022/05/05 09:51:18;;;;;;;22.17;17.20;;;15.30;99.90;;;;;;5010591;28;20593;-76
2022/05/05 09:59:17;;;;;;;20.83;16.10;;;15.20;99.90;;;;;;5014369;28;21061;-76
2022/05/05 10:01:46;;;;;;;26.20;16.00;;;14.90;99.90;;;;;;5012682;28;20540;-76
2022/05/05 10:04:14;;;;;;;20.43;15.83;;;14.70;99.90;;;;;;5016205;28;20435;-77
2022/05/05 10:06:43;;;;;;;18.30;15.90;;;14.80;99.90;;;;;;5013873;28;20531;-76
2022/05/05 10:09:14;;;;;;;20.30;16.30;;;14.60;99.90;;;;;;5014983;28;20458;-74
2022/05/05 10:11:40;;;;;;;23.13;15.07;;;14.60;99.90;;;;;;5018802;28;20427;-74
2022/05/05 10:14:09;;;;;;;20.60;15.63;;;14.70;99.90;;;;;;5011565;28;20449;-74
2022/05/05 10:16:37;;;;;;;19.80;16.27;;;14.80;99.90;;;;;;5015807;28;20452;-76
2022/05/05 10:19:04;;;;;;;24.87;15.83;;;14.80;99.90;;;;;;5034778;28;20430;-74
2022/05/05 10:21:49;;;;;;;21.93;16.90;;;14.90;99.90;;;;;;5013990;28;20439;-76
2022/05/05 10:24:20;;;;;;;26.80;15.53;;;15.00;99.90;;;;;;5011706;28;20483;-76
2022/05/05 10:26:50;;;;;;;25.20;15.03;;;14.90;99.90;;;;;;5017839;28;20430;-76
2022/05/05 10:29:43;;;;;;;19.93;15.70;;;15.00;99.90;;;;;;5028900;28;20442;-75
2022/05/05 10:32:11;;;;;;;19.90;15.60;;;15.10;99.90;;;;;;5011914;28;20432;-75
2022/05/05 10:34:41;;;;;;;20.57;16.13;;;15.00;99.90;;;;;;5013742;28;20971;-76
2022/05/05 10:37:10;;;;;;;22.50;15.47;;;14.80;99.90;;;;;;5018156;28;20499;-75
2022/05/05 10:39:48;;;;;;;22.47;15.77;;;15.00;99.90;;;;;;5012785;28;20427;-75
2022/05/05 10:42:45;;;;;;;19.37;15.77;;;15.10;99.90;;;;;;5016281;28;20431;-75
2022/05/05 10:45:15;;;;;;;18.47;16.47;;;15.10;99.90;;;;;;5016529;28;21098;-75
2022/05/05 10:47:49;;;;;;;20.43;17.07;;;15.20;99.90;;;;;;5010184;28;20968;-76
2022/05/05 10:50:34;;;;;;;22.57;16.50;;;15.10;99.90;;;;;;5014649;28;20838;-75
2022/05/05 10:53:01;;;;;;;19.13;16.20;;;15.20;99.90;;;;;;5018248;28;20454;-76
2022/05/05 10:55:42;;;;;;;25.20;17.70;;;15.10;99.90;;;;;;5017560;28;20435;-75
2022/05/05 10:58:10;;;;;;;26.47;17.40;;;15.00;99.90;;;;;;5016977;28;20429;-76
2022/05/05 11:00:44;;;;;;;26.20;18.30;;;15.00;99.90;;;;;;5021045;28;20447;-76
2022/05/05 11:03:10;;;;;;;24.70;19.47;;;14.80;99.90;;;;;;5019228;28;20499;-75
2022/05/05 11:05:37;;;;;;;25.00;17.77;;;14.80;99.90;;;;;;5018375;28;20486;-77
2022/05/05 11:08:06;;;;;;;19.70;16.83;;;14.60;99.90;;;;;;5019457;28;20188;-77
2022/05/05 11:10:31;;;;;;;24.40;18.10;;;14.60;99.90;;;;;;5034798;28;20473;-75
2022/05/05 11:12:57;;;;;;;23.77;17.80;;;14.50;99.90;;;;;;5017516;28;20459;-76
2022/05/05 11:21:35;;;;;;;22.90;19.10;;;14.50;99.90;;;;;;5015079;28;20547;-75
2022/05/05 11:24:02;;;;;;;23.23;17.60;;;14.70;99.90;;;;;;5031489;28;20451;-74
2022/05/05 11:26:29;;;;;;;22.10;17.00;;;14.70;99.90;;;;;;5019512;28;20439;-76
2022/05/05 11:28:58;;;;;;;20.87;17.70;;;14.80;99.90;;;;;;5014707;28;20479;-76
2022/05/05 11:31:30;;;;;;;24.03;17.80;;;14.50;99.90;;;;;;5033590;28;20562;-76
2022/05/05 11:34:00;;;;;;;22.70;17.70;;;14.60;99.90;;;;;;5012245;28;20542;-75
2022/05/05 11:36:33;;;;;;;19.17;17.00;;;14.70;99.90;;;;;;5031879;28;20616;-76
2022/05/05 11:38:59;;;;;;;21.57;17.67;;;14.70;99.90;;;;;;5016014;28;20972;-76
2022/05/05 11:41:26;;;;;;;27.13;18.90;;;14.70;99.90;;;;;;5013757;28;20490;-75
2022/05/05 11:46:38;;;;;;;20.37;17.27;;;15.10;99.90;;;;;;5015991;28;20446;-75
2022/05/05 11:49:04;;;;;;;21.97;16.83;;;15.30;99.90;;;;;;5019177;28;20837;-75
2022/05/05 11:51:34;;;;;;;19.33;15.57;;;15.40;99.90;;;;;;5018800;28;20473;-76
2022/05/05 11:54:10;;;;;;;18.03;15.40;;;15.60;99.90;;;;;;5014202;28;20470;-75
2022/05/05 11:56:42;;;;;;;23.10;15.77;;;15.50;99.90;;;;;;5007894;28;20502;-75
2022/05/05 12:02:19;;;;;;;19.60;14.53;;;15.90;99.90;;;;;;5014716;28;20446;-75
2022/05/05 12:04:57;;;;;;;18.37;15.30;;;16.00;99.90;;;;;;5028721;28;20463;-76
2022/05/05 12:07:24;;;;;;;19.60;14.60;;;16.10;99.90;;;;;;5015864;28;20446;-74
2022/05/05 12:09:51;;;;;;;21.03;16.70;;;16.30;99.90;;;;;;5016327;28;20470;-76
2022/05/05 12:12:19;;;;;;;19.20;15.40;;;16.40;99.90;;;;;;5030580;28;20443;-76
2022/05/05 12:14:53;;;;;;;20.60;14.70;;;16.50;99.90;;;;;;5013807;28;20428;-75
2022/05/05 12:17:24;;;;;;;24.73;15.40;;;16.50;99.90;;;;;;5030088;28;20444;-75
2022/05/05 12:19:54;;;;;;;19.63;14.50;;;16.60;99.90;;;;;;5013789;28;20443;-74
2022/05/05 12:22:31;;;;;;;17.20;13.80;;;16.60;99.90;;;;;;5034286;28;20421;-76
2022/05/05 12:25:09;;;;;;;21.23;15.67;;;16.80;99.90;;;;;;5013799;28;20431;-76
2022/05/05 12:27:35;;;;;;;19.10;15.50;;;16.40;99.90;;;;;;5014416;28;20438;-76
2022/05/05 12:30:01;;;;;;;16.43;14.63;;;16.50;99.90;;;;;;5030113;28;20536;-75
2022/05/05 12:32:27;;;;;;;22.90;15.20;;;16.50;99.90;;;;;;5012803;28;20447;-76
2022/05/05 12:35:05;;;;;;;20.57;17.73;;;16.70;99.90;;;;;;5018303;28;20555;-75
2022/05/05 12:37:31;;;;;;;22.60;16.63;;;16.50;99.90;;;;;;5015862;28;20463;-74
2022/05/05 12:40:07;;;;;;;20.60;16.43;;;16.40;99.90;;;;;;5010044;28;20527;-75
2022/05/05 12:42:48;;;;;;;21.30;16.67;;;16.20;99.90;;;;;;5016799;28;20505;-77
2022/05/05 12:45:24;;;;;;;20.33;17.80;;;16.40;99.90;;;;;;5021372;28;20543;-77
2022/05/05 12:47:51;;;;;;;22.50;19.07;;;16.10;99.90;;;;;;5018650;28;20441;-77
2022/05/05 12:50:35;;;;;;;23.53;18.63;;;15.90;99.90;;;;;;5013214;28;20464;-77
2022/05/05 13:01:25;;;;;;;26.03;18.07;;;16.10;99.90;;;;;;5013916;28;20516;-75
2022/05/05 13:03:54;;;;;;;20.00;17.83;;;16.10;99.90;;;;;;5028163;28;20454;-77
2022/05/05 13:06:25;;;;;;;22.50;17.90;;;16.30;99.90;;;;;;5017086;28;20443;-75
2022/05/05 13:08:52;;;;;;;21.70;17.80;;;16.40;99.90;;;;;;5019645;28;20511;-75
2022/05/05 13:11:18;;;;;;;27.73;18.10;;;16.80;99.90;;;;;;5015691;28;20463;-77
2022/05/05 13:13:44;;;;;;;22.03;17.33;;;16.50;99.90;;;;;;5028680;28;20533;-78
2022/05/05 13:16:11;;;;;;;22.40;16.20;;;16.90;99.90;;;;;;5013600;28;20435;-77
2022/05/05 13:18:37;;;;;;;33.00;17.10;;;17.10;99.90;;;;;;5017746;28;20446;-78
2022/05/05 13:21:03;;;;;;;24.33;17.13;;;17.20;99.90;;;;;;5019602;28;20518;-77
2022/05/05 13:23:28;;;;;;;19.50;15.20;;;17.30;99.90;;;;;;5017396;28;20547;-77
2022/05/05 13:25:54;;;;;;;18.27;14.97;;;17.10;99.90;;;;;;5025037;28;20196;-77